Time;durP1;ratioP1;P1;durP2;ratioP2;P2;SDS_P1;SDS_P2;PMS_P1;PMS_P2;Temp;Humidity;BMP_temperature;BMP_pressure;BME280_temperature;BME280_humidity;BME280_pressure;Samples;Min_cycle;Max_cycle;Signal;HPM_P1;HPM_P2
2022/07/28 00:00:45;;;;;;;1.10;0.90;;;26.90;63.60;;;;;;5073314;28;20931;-81
2022/07/28 00:03:12;;;;;;;1.30;1.00;;;26.90;63.50;;;;;;5073891;28;20447;-81
2022/07/28 00:05:40;;;;;;;1.03;0.90;;;26.90;63.60;;;;;;5073454;28;20449;-81
2022/07/28 00:08:09;;;;;;;1.00;0.87;;;26.90;63.40;;;;;;5073650;28;20484;-81
2022/07/28 00:10:35;;;;;;;1.30;1.00;;;26.90;63.50;;;;;;5073381;28;20995;-81
2022/07/28 00:13:02;;;;;;;1.37;0.93;;;26.90;63.50;;;;;;5073035;28;21062;-81
2022/07/28 00:15:29;;;;;;;1.77;1.00;;;26.90;64.40;;;;;;5073367;28;20445;-82
2022/07/28 00:17:56;;;;;;;1.10;0.90;;;26.90;63.50;;;;;;5073324;28;20932;-81
2022/07/28 00:20:24;;;;;;;1.27;1.00;;;26.90;63.40;;;;;;5073166;28;20453;-81
2022/07/28 00:22:52;;;;;;;1.10;0.90;;;26.90;63.40;;;;;;5078796;28;20921;-81
2022/07/28 00:25:19;;;;;;;1.27;0.90;;;26.90;63.30;;;;;;5079909;28;20444;-81
2022/07/28 00:27:46;;;;;;;1.83;1.00;;;26.90;63.30;;;;;;5079957;28;21030;-81
2022/07/28 00:30:13;;;;;;;1.37;0.83;;;26.90;63.30;;;;;;5079939;28;20843;-81
2022/07/28 00:32:40;;;;;;;1.20;1.00;;;26.90;63.50;;;;;;5079952;28;20433;-81
2022/07/28 00:35:08;;;;;;;0.93;0.70;;;26.80;63.50;;;;;;5079764;28;20432;-81
2022/07/28 00:37:34;;;;;;;1.20;0.73;;;26.80;63.60;;;;;;5080124;28;20494;-81
2022/07/28 00:40:03;;;;;;;2.07;1.07;;;26.80;63.50;;;;;;5079794;28;20441;-81
2022/07/28 00:42:30;;;;;;;1.30;0.90;;;26.90;63.70;;;;;;5079838;28;20535;-81
2022/07/28 00:44:56;;;;;;;1.00;0.80;;;26.80;63.60;;;;;;5079923;28;20441;-81
2022/07/28 00:47:23;;;;;;;1.27;0.90;;;26.80;63.50;;;;;;5079906;28;20484;-81
2022/07/28 00:49:50;;;;;;;1.50;0.90;;;26.80;63.50;;;;;;5079716;28;20814;-81
2022/07/28 00:52:18;;;;;;;1.00;0.90;;;26.80;63.60;;;;;;5079638;28;20437;-81
2022/07/28 00:54:44;;;;;;;1.00;0.90;;;26.80;63.60;;;;;;5079534;28;20500;-81
2022/07/28 00:57:13;;;;;;;1.07;0.80;;;26.80;63.60;;;;;;5079762;28;20923;-81
2022/07/28 00:59:40;;;;;;;1.27;0.90;;;26.80;63.80;;;;;;5079632;28;20969;-81
2022/07/28 01:02:07;;;;;;;1.00;0.80;;;26.80;64.70;;;;;;5079636;28;20443;-81
2022/07/28 01:04:34;;;;;;;1.57;1.03;;;26.80;63.90;;;;;;5079828;28;20463;-81
2022/07/28 01:07:19;;;;;;;1.00;0.80;;;26.80;63.50;;;;;;5079411;28;20484;-82
2022/07/28 01:09:56;;;;;;;1.10;0.83;;;26.80;63.60;;;;;;5079630;28;20767;-81
2022/07/28 01:12:40;;;;;;;1.00;0.80;;;26.80;63.80;;;;;;5079724;28;20471;-83
2022/07/28 01:15:19;;;;;;;1.10;0.90;;;26.80;63.80;;;;;;5079860;28;20428;-83
2022/07/28 01:17:54;;;;;;;1.00;0.70;;;26.80;63.70;;;;;;5079375;28;20440;-83
2022/07/28 01:20:25;;;;;;;1.17;0.80;;;26.70;63.70;;;;;;5079628;28;20452;-83
2022/07/28 01:23:18;;;;;;;1.10;0.97;;;26.70;63.80;;;;;;5079603;28;20440;-83
2022/07/28 01:25:53;;;;;;;1.27;0.90;;;26.70;63.90;;;;;;5079705;28;20432;-83
2022/07/28 01:28:28;;;;;;;1.10;0.90;;;26.70;63.80;;;;;;5079394;28;21000;-83
2022/07/28 01:31:00;;;;;;;1.00;0.90;;;26.70;63.80;;;;;;5079737;28;20450;-83
2022/07/28 01:33:32;;;;;;;1.00;0.70;;;26.70;63.80;;;;;;5076612;28;20444;-84
2022/07/28 01:36:04;;;;;;;1.10;0.80;;;26.70;63.80;;;;;;5076101;28;20514;-82
2022/07/28 01:38:34;;;;;;;1.00;0.90;;;26.70;64.00;;;;;;5076123;28;20445;-83
2022/07/28 01:41:02;;;;;;;0.97;0.77;;;26.70;63.80;;;;;;5076036;28;20499;-83
2022/07/28 01:43:33;;;;;;;0.97;0.73;;;26.70;63.80;;;;;;5075895;28;20444;-83
2022/07/28 01:46:02;;;;;;;1.00;0.73;;;26.70;64.80;;;;;;5076235;28;20463;-83
2022/07/28 01:48:31;;;;;;;1.20;1.00;;;26.70;63.80;;;;;;5075817;28;20491;-83
2022/07/28 01:50:59;;;;;;;1.03;0.80;;;26.70;63.80;;;;;;5075492;28;20475;-95
2022/07/28 01:53:27;;;;;;;1.10;0.80;;;26.70;63.80;;;;;;5075930;28;20535;-83
2022/07/28 01:55:55;;;;;;;1.20;0.90;;;26.70;63.80;;;;;;5075848;28;20433;-83
2022/07/28 01:58:25;;;;;;;1.07;0.80;;;26.70;63.80;;;;;;5075784;28;20440;-82
2022/07/28 02:00:53;;;;;;;1.30;0.80;;;26.70;63.90;;;;;;5075953;28;20532;-83
2022/07/28 02:03:24;;;;;;;1.83;1.00;;;26.70;63.70;;;;;;5075432;28;20436;-85
2022/07/28 02:05:53;;;;;;;1.00;0.90;;;26.70;63.90;;;;;;5075629;28;20437;-82
2022/07/28 02:08:22;;;;;;;1.20;0.80;;;26.70;63.80;;;;;;5075517;28;20487;-82
2022/07/28 02:13:33;;;;;;;1.93;0.90;;;26.70;63.90;;;;;;5074211;28;20484;-83
2022/07/28 02:16:02;;;;;;;1.00;0.70;;;26.70;64.70;;;;;;5075377;28;20445;-93
2022/07/28 02:18:32;;;;;;;1.10;0.80;;;26.70;63.70;;;;;;5075400;28;20444;-83
2022/07/28 02:21:00;;;;;;;1.00;0.80;;;26.70;63.70;;;;;;5075367;28;20499;-82
2022/07/28 02:23:27;;;;;;;1.10;0.83;;;26.70;63.90;;;;;;5075380;28;20437;-86
2022/07/28 02:25:55;;;;;;;0.93;0.77;;;26.70;63.90;;;;;;5075163;28;20442;-83
2022/07/28 02:28:23;;;;;;;1.17;0.80;;;26.70;63.80;;;;;;5075042;28;20485;-83
2022/07/28 02:30:55;;;;;;;1.13;0.80;;;26.60;63.80;;;;;;5075009;28;20931;-83
2022/07/28 02:33:24;;;;;;;0.90;0.70;;;26.70;63.90;;;;;;5075041;28;20443;-83
2022/07/28 02:35:56;;;;;;;1.00;0.73;;;26.70;63.80;;;;;;5075285;28;20444;-83
2022/07/28 02:38:26;;;;;;;1.00;0.80;;;26.70;63.70;;;;;;5075021;28;20441;-83
2022/07/28 02:40:58;;;;;;;0.90;0.70;;;26.70;63.80;;;;;;5074906;28;20433;-83
2022/07/28 02:43:28;;;;;;;1.10;0.90;;;26.70;63.90;;;;;;5074888;28;20442;-83
2022/07/28 02:45:59;;;;;;;0.97;0.70;;;26.60;64.00;;;;;;5074727;28;20460;-89
2022/07/28 02:48:31;;;;;;;1.00;0.80;;;26.60;63.80;;;;;;5074709;28;20869;-83
2022/07/28 02:51:01;;;;;;;1.00;0.80;;;26.70;63.90;;;;;;5074564;28;20463;-83
2022/07/28 02:53:29;;;;;;;1.13;0.90;;;26.70;63.90;;;;;;5074769;28;20536;-95
2022/07/28 02:55:56;;;;;;;1.27;0.97;;;26.70;64.20;;;;;;5074555;28;20432;-83
2022/07/28 02:58:26;;;;;;;1.00;0.90;;;26.70;64.10;;;;;;5074562;28;20432;-83
2022/07/28 03:00:54;;;;;;;1.20;0.90;;;26.70;64.00;;;;;;5074671;28;20532;-83
2022/07/28 03:03:22;;;;;;;1.20;0.70;;;26.70;64.10;;;;;;5074615;28;20447;-84
2022/07/28 03:05:49;;;;;;;1.10;0.90;;;26.70;64.20;;;;;;5074485;28;20437;-83
2022/07/28 03:08:18;;;;;;;1.30;0.97;;;26.60;64.10;;;;;;5074457;28;20480;-82
2022/07/28 03:10:44;;;;;;;1.00;0.80;;;26.70;64.10;;;;;;5074731;28;20467;-83
2022/07/28 03:13:11;;;;;;;1.00;0.80;;;26.70;64.10;;;;;;5074122;28;20479;-83
2022/07/28 03:15:39;;;;;;;1.03;0.83;;;26.70;63.90;;;;;;5074674;28;20533;-84
2022/07/28 03:18:06;;;;;;;0.90;0.80;;;26.60;63.70;;;;;;5074474;28;20444;-83
2022/07/28 03:20:34;;;;;;;0.90;0.70;;;26.60;63.60;;;;;;5074070;28;20518;-83
2022/07/28 03:23:00;;;;;;;0.93;0.70;;;26.70;63.80;;;;;;5074760;28;20432;-83
2022/07/28 03:25:35;;;;;;;1.03;0.73;;;26.70;63.70;;;;;;5074384;28;20444;-94
2022/07/28 03:28:05;;;;;;;1.10;0.80;;;26.70;63.70;;;;;;5074235;28;20477;-83
2022/07/28 03:30:36;;;;;;;0.90;0.70;;;26.60;63.70;;;;;;5073920;28;20916;-83
2022/07/28 03:33:03;;;;;;;1.10;0.90;;;26.70;63.50;;;;;;5074110;28;20463;-83
2022/07/28 03:35:32;;;;;;;0.97;0.70;;;26.70;63.70;;;;;;5073945;28;20912;-83
2022/07/28 03:38:03;;;;;;;1.10;0.80;;;26.60;63.70;;;;;;5073954;28;20454;-83
2022/07/28 03:40:33;;;;;;;1.00;0.80;;;26.60;63.70;;;;;;5073822;28;20445;-95
2022/07/28 03:43:05;;;;;;;1.20;0.73;;;26.60;63.60;;;;;;5074058;28;20443;-83
2022/07/28 03:45:32;;;;;;;1.00;0.70;;;26.60;63.70;;;;;;5073885;28;20437;-83
2022/07/28 03:48:00;;;;;;;1.70;0.93;;;26.60;63.70;;;;;;5073661;28;20489;-83
2022/07/28 03:50:29;;;;;;;1.10;0.90;;;26.60;63.40;;;;;;5073311;28;20497;-85
2022/07/28 03:52:56;;;;;;;1.10;0.80;;;26.60;63.70;;;;;;5073661;28;20441;-83
2022/07/28 03:55:24;;;;;;;1.00;0.77;;;26.60;63.60;;;;;;5073848;28;20445;-83
2022/07/28 03:57:53;;;;;;;1.40;1.03;;;26.60;63.80;;;;;;5073006;28;20437;-84
2022/07/28 04:00:20;;;;;;;1.10;0.90;;;26.60;63.70;;;;;;5073807;28;20444;-83
2022/07/28 04:02:47;;;;;;;1.03;0.90;;;26.60;63.70;;;;;;5073520;28;20795;-82
2022/07/28 04:05:16;;;;;;;1.00;0.80;;;26.60;63.70;;;;;;5073557;28;20439;-83
2022/07/28 04:07:44;;;;;;;1.03;0.77;;;26.60;63.90;;;;;;5073398;28;20476;-83
2022/07/28 04:10:13;;;;;;;1.00;0.80;;;26.60;64.70;;;;;;5073237;28;20447;-83
2022/07/28 04:12:53;;;;;;;1.20;0.90;;;26.60;65.00;;;;;;5073272;28;20473;-83
2022/07/28 04:15:20;;;;;;;1.00;0.70;;;26.70;65.10;;;;;;5073304;28;20920;-83
2022/07/28 04:17:48;;;;;;;1.67;0.93;;;26.60;64.40;;;;;;5073481;28;20451;-95
2022/07/28 04:20:16;;;;;;;1.53;1.10;;;26.60;64.90;;;;;;5073109;28;20469;-83
2022/07/28 04:22:43;;;;;;;1.10;1.00;;;26.60;64.20;;;;;;5073211;28;20448;-83
2022/07/28 04:25:12;;;;;;;1.10;1.00;;;26.60;64.50;;;;;;5073194;28;20441;-95
2022/07/28 04:27:40;;;;;;;1.17;1.00;;;26.60;64.20;;;;;;5073124;28;20959;-95
2022/07/28 04:30:11;;;;;;;1.20;1.10;;;26.60;64.60;;;;;;5073410;28;20440;-83
2022/07/28 04:32:38;;;;;;;1.43;1.10;;;26.60;64.50;;;;;;5073120;28;20440;-83
2022/07/28 04:35:06;;;;;;;1.33;1.23;;;26.60;64.70;;;;;;5073567;28;20448;-83
2022/07/28 04:37:33;;;;;;;1.47;1.27;;;26.60;65.00;;;;;;5073243;28;20829;-83
2022/07/28 04:40:00;;;;;;;1.23;1.10;;;26.60;64.70;;;;;;5073294;28;20440;-83
2022/07/28 04:42:27;;;;;;;1.10;1.00;;;26.60;65.30;;;;;;5073058;28;20842;-84
2022/07/28 04:44:53;;;;;;;2.47;2.27;;;26.60;64.70;;;;;;5072994;28;20916;-82
2022/07/28 04:47:23;;;;;;;2.27;2.07;;;26.60;65.10;;;;;;5073095;28;20449;-83
2022/07/28 04:49:50;;;;;;;1.97;1.77;;;26.60;66.30;;;;;;5072956;28;20518;-83
2022/07/28 04:52:17;;;;;;;2.10;1.70;;;26.60;64.70;;;;;;5073040;28;20441;-83
2022/07/28 04:54:44;;;;;;;1.63;1.50;;;26.60;64.80;;;;;;5073161;28;20445;-83
2022/07/28 04:57:11;;;;;;;1.63;1.53;;;26.60;65.10;;;;;;5073133;28;20468;-83
2022/07/28 04:59:38;;;;;;;1.80;1.70;;;26.60;65.00;;;;;;5073135;28;20433;-83
2022/07/28 05:02:07;;;;;;;1.50;1.40;;;26.60;66.20;;;;;;5073066;28;20935;-92
2022/07/28 05:04:35;;;;;;;2.00;1.90;;;26.60;65.50;;;;;;5064764;28;20433;-93
2022/07/28 05:07:02;;;;;;;1.60;1.50;;;26.60;65.80;;;;;;5073220;28;20433;-93
2022/07/28 05:09:32;;;;;;;1.80;1.70;;;26.60;66.40;;;;;;5076309;28;20587;-92
2022/07/28 05:11:59;;;;;;;1.50;1.40;;;26.60;66.20;;;;;;5076762;28;20476;-92
2022/07/28 05:14:26;;;;;;;1.57;1.47;;;26.60;66.30;;;;;;5076974;28;20440;-92
2022/07/28 05:16:53;;;;;;;2.67;1.67;;;26.60;66.30;;;;;;5076337;28;20432;-86
2022/07/28 05:19:19;;;;;;;1.70;1.60;;;26.60;66.30;;;;;;5076639;28;20543;-84
2022/07/28 05:21:48;;;;;;;1.80;1.70;;;26.60;65.70;;;;;;5076157;28;20547;-87
2022/07/28 05:24:15;;;;;;;2.97;1.40;;;26.60;65.90;;;;;;5076742;28;20445;-93
2022/07/28 05:26:42;;;;;;;1.97;1.40;;;26.60;65.30;;;;;;5076224;28;20539;-87
2022/07/28 05:29:08;;;;;;;1.50;1.30;;;26.60;65.60;;;;;;5076155;28;20487;-87
2022/07/28 05:31:35;;;;;;;2.23;1.23;;;26.60;65.70;;;;;;5076146;28;20441;-88
2022/07/28 05:34:02;;;;;;;1.90;1.60;;;26.60;65.70;;;;;;5076230;28;21008;-88
2022/07/28 05:36:29;;;;;;;1.80;1.67;;;26.60;66.00;;;;;;5076092;28;20528;-88
2022/07/28 05:38:57;;;;;;;2.73;1.40;;;26.60;66.00;;;;;;5076051;28;20544;-88
2022/07/28 05:41:24;;;;;;;1.60;1.50;;;26.60;64.50;;;;;;5076602;28;20473;-87
2022/07/28 05:43:52;;;;;;;2.13;1.50;;;26.50;63.10;;;;;;5076141;28;20895;-87
2022/07/28 05:46:19;;;;;;;2.07;1.50;;;26.50;61.20;;;;;;5076162;28;20527;-91
2022/07/28 05:48:46;;;;;;;2.97;1.50;;;26.50;60.60;;;;;;5078182;28;20970;-88
2022/07/28 05:51:13;;;;;;;4.60;2.10;;;26.40;60.40;;;;;;5076002;28;20495;-90
2022/07/28 05:53:40;;;;;;;3.73;1.93;;;26.30;60.40;;;;;;5075760;28;20540;-88
2022/07/28 05:56:08;;;;;;;5.63;1.83;;;26.30;61.10;;;;;;5075909;28;20476;-91
2022/07/28 05:58:35;;;;;;;3.83;1.60;;;26.20;59.60;;;;;;5075879;28;20437;-88
2022/07/28 06:01:02;;;;;;;2.30;1.47;;;26.20;59.50;;;;;;5075817;28;20962;-88
2022/07/28 06:03:31;;;;;;;5.03;1.70;;;26.10;60.30;;;;;;5075447;28;20445;-89
2022/07/28 06:05:58;;;;;;;3.47;1.60;;;26.00;59.90;;;;;;5076188;28;20531;-88
2022/07/28 06:08:25;;;;;;;4.20;2.17;;;26.00;59.60;;;;;;5075684;28;20504;-89
2022/07/28 06:11:08;;;;;;;4.87;1.70;;;26.00;59.50;;;;;;5075694;28;20433;-87
2022/07/28 06:13:36;;;;;;;4.07;1.70;;;26.00;59.80;;;;;;5075397;28;20469;-87
2022/07/28 06:16:04;;;;;;;4.57;1.83;;;26.00;59.70;;;;;;5075478;28;20439;-96
2022/07/28 06:18:31;;;;;;;4.57;1.90;;;25.90;59.70;;;;;;5077074;28;20495;-95
2022/07/28 06:20:58;;;;;;;6.63;2.17;;;25.90;59.30;;;;;;5074732;28;20483;-89
2022/07/28 06:23:25;;;;;;;2.40;1.77;;;25.80;59.40;;;;;;5075343;28;20528;-90
2022/07/28 06:25:53;;;;;;;4.17;1.97;;;25.80;59.40;;;;;;5076394;28;20865;-90
2022/07/28 06:28:20;;;;;;;3.10;2.30;;;25.70;59.30;;;;;;5076169;28;20561;-89
2022/07/28 06:30:49;;;;;;;6.07;2.60;;;25.60;59.50;;;;;;5075460;28;20453;-90
2022/07/28 06:33:16;;;;;;;3.90;1.83;;;25.60;59.60;;;;;;5075296;28;20476;-90
2022/07/28 06:35:44;;;;;;;7.10;2.27;;;25.50;59.70;;;;;;5075616;28;20446;-96
2022/07/28 06:38:11;;;;;;;4.03;1.97;;;25.50;59.90;;;;;;5077540;28;20544;-89
2022/07/28 06:40:38;;;;;;;4.93;1.97;;;25.60;60.00;;;;;;5076303;28;20436;-90
2022/07/28 06:43:05;;;;;;;4.97;2.30;;;25.60;59.90;;;;;;5075226;28;20476;-93
2022/07/28 06:45:32;;;;;;;3.53;1.77;;;25.60;59.90;;;;;;5074465;28;20802;-89
2022/07/28 06:48:00;;;;;;;2.80;2.07;;;25.60;59.90;;;;;;5075096;28;20531;-95
2022/07/28 06:50:27;;;;;;;5.03;1.60;;;25.60;59.80;;;;;;5074972;28;20464;-89
2022/07/28 06:52:55;;;;;;;6.47;1.93;;;25.60;59.90;;;;;;5075164;28;20803;-89
2022/07/28 06:55:22;;;;;;;7.60;1.97;;;25.60;60.00;;;;;;5074852;28;20444;-89
2022/07/28 06:57:49;;;;;;;3.40;2.10;;;25.60;59.90;;;;;;5074537;28;20998;-89
2022/07/28 07:00:16;;;;;;;4.13;1.60;;;25.60;59.90;;;;;;5075136;28;20532;-94
2022/07/28 07:02:43;;;;;;;2.00;1.77;;;25.60;60.00;;;;;;5075981;28;20967;-91
2022/07/28 07:05:12;;;;;;;2.60;1.83;;;25.60;60.40;;;;;;5076432;28;20468;-96
2022/07/28 07:07:39;;;;;;;3.00;1.50;;;25.70;61.40;;;;;;5076262;28;20444;-90
2022/07/28 07:10:07;;;;;;;2.33;1.60;;;25.70;62.80;;;;;;5076456;28;20489;-91
2022/07/28 07:12:34;;;;;;;6.57;1.33;;;25.80;62.30;;;;;;5075670;28;20555;-95
2022/07/28 07:15:01;;;;;;;2.10;1.43;;;25.80;62.30;;;;;;5076518;28;20579;-96
2022/07/28 07:17:28;;;;;;;1.40;1.10;;;25.90;62.40;;;;;;5075399;28;20445;-96
2022/07/28 07:19:55;;;;;;;1.40;1.03;;;25.90;62.50;;;;;;5074875;28;20475;-91
2022/07/28 07:22:23;;;;;;;1.67;1.37;;;26.00;62.60;;;;;;5075382;28;20480;-95
2022/07/28 07:24:50;;;;;;;1.90;1.50;;;26.00;62.60;;;;;;5076770;28;20493;-90
2022/07/28 07:27:17;;;;;;;4.20;1.50;;;26.10;62.60;;;;;;5075941;28;20873;-96
2022/07/28 07:29:44;;;;;;;1.60;1.30;;;26.10;62.50;;;;;;5076525;28;20575;-90
2022/07/28 07:32:11;;;;;;;1.50;1.10;;;26.10;62.60;;;;;;5074658;28;20480;-94
2022/07/28 07:34:39;;;;;;;3.43;1.77;;;26.10;62.60;;;;;;5075880;28;20436;-91
2022/07/28 07:37:07;;;;;;;2.73;1.10;;;26.20;62.70;;;;;;5075552;28;20444;-91
2022/07/28 07:39:35;;;;;;;1.83;1.10;;;26.20;62.60;;;;;;5075879;28;20441;-95
2022/07/28 07:42:02;;;;;;;2.77;1.40;;;26.20;62.60;;;;;;5076050;28;20476;-93
2022/07/28 07:44:29;;;;;;;1.80;1.20;;;26.20;62.60;;;;;;5074808;28;20527;-96
2022/07/28 07:46:56;;;;;;;1.20;0.90;;;26.20;62.60;;;;;;5076004;28;20794;-95
2022/07/28 07:49:22;;;;;;;2.80;1.27;;;26.20;62.60;;;;;;5075087;28;20512;-91
2022/07/28 07:51:49;;;;;;;3.33;1.10;;;26.20;62.70;;;;;;5074677;28;20535;-90
2022/07/28 07:54:16;;;;;;;2.90;1.40;;;26.20;62.70;;;;;;5075680;28;21023;-96
2022/07/28 07:56:44;;;;;;;4.53;1.50;;;26.30;63.00;;;;;;5075125;28;20448;-90
2022/07/28 07:59:11;;;;;;;1.20;1.10;;;26.30;63.20;;;;;;5076883;28;20477;-90
2022/07/28 08:01:38;;;;;;;2.10;1.20;;;26.20;63.10;;;;;;5076110;28;20516;-96
2022/07/28 08:04:05;;;;;;;1.80;1.40;;;26.30;63.20;;;;;;5075898;28;20503;-91
2022/07/28 08:06:33;;;;;;;2.40;0.97;;;26.30;63.20;;;;;;5076885;28;20453;-90
2022/07/28 08:08:59;;;;;;;4.37;1.53;;;26.30;63.30;;;;;;5075038;28;20879;-93
2022/07/28 08:11:26;;;;;;;3.40;1.67;;;26.30;62.90;;;;;;5075246;28;20939;-85
2022/07/28 08:13:54;;;;;;;4.23;1.40;;;26.30;61.60;;;;;;5073235;28;20472;-85
2022/07/28 08:16:21;;;;;;;2.50;1.20;;;26.30;61.70;;;;;;5076217;28;20457;-94
2022/07/28 08:18:48;;;;;;;4.17;1.27;;;26.20;61.30;;;;;;5073432;28;21015;-83
2022/07/28 08:21:16;;;;;;;2.27;0.90;;;26.30;61.60;;;;;;5073231;28;20437;-94
2022/07/28 08:23:43;;;;;;;2.13;1.00;;;26.30;62.20;;;;;;5074342;28;20527;-93
2022/07/28 08:26:10;;;;;;;4.10;1.30;;;26.30;62.70;;;;;;5074382;28;20459;-84
2022/07/28 08:28:37;;;;;;;1.90;1.17;;;26.30;63.10;;;;;;5073193;28;20444;-85
2022/07/28 08:31:05;;;;;;;3.93;1.20;;;26.30;63.10;;;;;;5073560;28;20870;-86
2022/07/28 08:33:32;;;;;;;3.00;1.37;;;26.30;63.40;;;;;;5074036;28;20525;-88
2022/07/28 08:35:59;;;;;;;2.73;1.30;;;26.30;63.60;;;;;;5077182;28;20436;-94
2022/07/28 08:38:26;;;;;;;2.70;1.23;;;26.30;63.30;;;;;;5075744;28;20444;-87
2022/07/28 08:40:57;;;;;;;2.93;1.10;;;26.30;63.70;;;;;;5053423;28;20520;-86
2022/07/28 08:43:33;;;;;;;3.63;1.70;;;26.40;63.70;;;;;;5068244;28;20484;-89
2022/07/28 08:46:03;;;;;;;4.63;1.40;;;26.30;63.60;;;;;;5077280;28;20490;-89
2022/07/28 08:48:33;;;;;;;2.30;1.07;;;26.30;63.80;;;;;;5091390;28;20437;-87
2022/07/28 08:51:02;;;;;;;4.30;1.37;;;26.30;64.00;;;;;;5077160;28;20571;-90
2022/07/28 08:53:30;;;;;;;3.73;1.27;;;26.30;64.20;;;;;;5094431;28;20438;-85
2022/07/28 08:56:01;;;;;;;1.97;1.57;;;26.30;64.10;;;;;;5097316;28;20527;-89
2022/07/28 08:58:29;;;;;;;1.70;1.20;;;26.40;64.10;;;;;;5097468;28;20436;-88
2022/07/28 09:00:57;;;;;;;1.87;1.43;;;26.40;63.90;;;;;;5097035;28;20862;-91
2022/07/28 09:03:24;;;;;;;3.43;1.20;;;26.40;63.90;;;;;;5096717;28;20953;-81
2022/07/28 09:05:53;;;;;;;3.53;1.27;;;26.40;63.70;;;;;;5096349;28;20804;-81
2022/07/28 09:08:20;;;;;;;3.30;1.50;;;26.40;63.60;;;;;;5097528;28;20929;-92
2022/07/28 09:10:47;;;;;;;3.10;1.33;;;26.40;63.40;;;;;;5095920;28;20484;-81
2022/07/28 09:13:15;;;;;;;2.17;1.10;;;26.40;63.40;;;;;;5096864;28;20552;-81
2022/07/28 09:15:43;;;;;;;7.90;1.20;;;26.40;63.30;;;;;;5096189;28;20534;-81
2022/07/28 09:18:10;;;;;;;1.50;0.93;;;26.40;63.40;;;;;;5097579;28;20493;-92
2022/07/28 09:20:37;;;;;;;1.70;1.20;;;26.40;63.40;;;;;;5097188;28;20490;-81
2022/07/28 09:23:07;;;;;;;1.47;1.00;;;26.40;63.40;;;;;;5096389;28;20435;-81
2022/07/28 09:25:34;;;;;;;3.13;1.00;;;26.50;63.50;;;;;;5097449;28;20551;-83
2022/07/28 09:28:07;;;;;;;1.83;1.23;;;26.40;63.30;;;;;;5096870;28;20847;-81
2022/07/28 09:30:36;;;;;;;1.60;1.50;;;26.50;63.40;;;;;;5096092;28;20522;-90
2022/07/28 09:33:15;;;;;;;1.70;1.13;;;26.40;63.50;;;;;;5097185;28;20781;-81
2022/07/28 09:35:44;;;;;;;1.17;0.97;;;26.50;63.60;;;;;;5099762;28;20451;-81
2022/07/28 09:38:13;;;;;;;2.40;1.10;;;26.40;63.50;;;;;;5097894;28;20479;-90
2022/07/28 09:40:40;;;;;;;1.80;1.27;;;26.50;63.80;;;;;;5097610;28;20436;-80
2022/07/28 09:43:08;;;;;;;2.40;1.30;;;26.50;63.60;;;;;;5096262;28;20447;-80
2022/07/28 09:45:35;;;;;;;1.67;1.00;;;26.50;63.70;;;;;;5095887;28;20523;-81
2022/07/28 09:48:10;;;;;;;5.57;1.20;;;26.50;63.70;;;;;;5096449;28;20488;-81
2022/07/28 09:50:37;;;;;;;3.27;1.53;;;26.50;63.60;;;;;;5096015;28;21023;-81
2022/07/28 09:53:21;;;;;;;2.27;1.10;;;26.50;64.20;;;;;;5095969;28;20531;-80
2022/07/28 09:55:56;;;;;;;1.93;1.13;;;26.50;64.20;;;;;;5095552;28;20790;-86
2022/07/28 09:58:23;;;;;;;3.63;1.17;;;26.50;64.20;;;;;;5096282;28;20436;-80
2022/07/28 10:00:50;;;;;;;1.57;1.20;;;26.40;64.20;;;;;;5096371;28;20444;-91
2022/07/28 10:03:26;;;;;;;1.87;1.30;;;26.50;64.20;;;;;;5096625;28;20447;-81
2022/07/28 10:05:53;;;;;;;2.27;1.30;;;26.50;64.30;;;;;;5096137;28;20485;-81
2022/07/28 10:08:40;;;;;;;2.93;1.37;;;26.40;65.20;;;;;;5095301;28;20440;-81
2022/07/28 10:11:07;;;;;;;2.90;0.90;;;26.50;65.20;;;;;;5095253;28;20498;-85
2022/07/28 10:13:34;;;;;;;2.33;1.53;;;26.50;64.40;;;;;;5094391;28;20468;-90
2022/07/28 10:16:11;;;;;;;1.67;1.20;;;26.40;64.30;;;;;;5095190;28;20446;-81
2022/07/28 10:18:39;;;;;;;1.70;1.10;;;26.50;64.30;;;;;;5095255;28;20442;-91
2022/07/28 10:21:09;;;;;;;1.10;1.00;;;26.40;64.40;;;;;;5095510;28;20452;-81
2022/07/28 10:23:39;;;;;;;1.97;1.13;;;26.50;64.60;;;;;;5087070;28;20440;-81
2022/07/28 10:26:10;;;;;;;1.23;1.10;;;26.50;64.50;;;;;;5097069;28;20440;-81
2022/07/28 10:28:38;;;;;;;1.77;1.00;;;26.50;64.50;;;;;;5095866;28;20447;-81
2022/07/28 10:31:09;;;;;;;1.30;1.10;;;26.50;64.60;;;;;;5095794;28;21018;-81
2022/07/28 10:33:43;;;;;;;2.37;1.10;;;26.50;64.70;;;;;;5096041;28;20450;-80
2022/07/28 10:36:11;;;;;;;2.67;1.00;;;26.50;64.90;;;;;;5095780;28;20442;-91
2022/07/28 10:38:40;;;;;;;1.50;1.23;;;26.50;64.80;;;;;;5095575;28;20815;-80
2022/07/28 10:41:08;;;;;;;1.87;1.30;;;26.50;64.80;;;;;;5095827;28;20439;-81
2022/07/28 10:43:36;;;;;;;1.43;1.10;;;26.50;64.80;;;;;;5095302;28;20927;-81
2022/07/28 10:46:04;;;;;;;2.23;1.23;;;26.50;65.00;;;;;;5095657;28;20468;-81
2022/07/28 10:48:31;;;;;;;3.90;1.13;;;26.50;64.90;;;;;;5095455;28;20809;-91
2022/07/28 10:50:59;;;;;;;1.20;1.10;;;26.50;65.10;;;;;;5095801;28;20822;-88
2022/07/28 10:53:34;;;;;;;1.73;1.23;;;26.50;64.90;;;;;;5095133;28;20945;-89
2022/07/28 10:56:07;;;;;;;1.17;1.00;;;26.50;65.20;;;;;;5096352;28;20930;-81
2022/07/28 10:58:44;;;;;;;1.30;0.93;;;26.50;65.10;;;;;;5095807;28;20522;-80
2022/07/28 11:01:11;;;;;;;1.43;1.20;;;26.50;65.10;;;;;;5095562;28;20527;-81
2022/07/28 11:03:42;;;;;;;1.40;1.10;;;26.50;65.10;;;;;;5095159;28;20432;-81
2022/07/28 11:06:24;;;;;;;1.87;1.10;;;26.50;65.20;;;;;;5095203;28;20523;-91
2022/07/28 11:08:52;;;;;;;1.10;1.00;;;26.50;65.10;;;;;;5094903;28;20440;-80
2022/07/28 11:11:44;;;;;;;1.27;0.97;;;26.50;65.20;;;;;;5095249;28;20487;-92
2022/07/28 11:14:34;;;;;;;1.93;1.20;;;26.50;65.20;;;;;;5095021;28;20436;-81
2022/07/28 11:17:18;;;;;;;1.30;1.00;;;26.50;65.20;;;;;;5095218;28;20939;-80
2022/07/28 11:19:54;;;;;;;1.10;0.93;;;26.50;65.20;;;;;;5095051;28;20459;-81
2022/07/28 11:22:27;;;;;;;1.53;1.10;;;26.50;65.30;;;;;;5094910;28;20524;-80
2022/07/28 11:25:15;;;;;;;1.30;1.07;;;26.50;65.30;;;;;;5094950;28;20448;-80
2022/07/28 11:28:16;;;;;;;1.00;0.80;;;26.50;66.10;;;;;;5094845;28;20448;-80
2022/07/28 11:30:54;;;;;;;1.57;0.93;;;26.50;65.20;;;;;;5094552;28;20479;-80
2022/07/28 11:33:23;;;;;;;1.40;1.30;;;26.50;65.40;;;;;;5094480;28;20969;-82
2022/07/28 11:35:57;;;;;;;1.20;0.93;;;26.50;65.40;;;;;;5094416;28;20452;-81
2022/07/28 11:38:24;;;;;;;1.20;0.80;;;26.50;65.40;;;;;;5094305;28;20432;-80
2022/07/28 11:40:53;;;;;;;1.10;1.00;;;26.50;65.40;;;;;;5094670;28;20629;-81
2022/07/28 11:43:35;;;;;;;4.20;1.23;;;26.50;65.40;;;;;;5094186;28;20522;-80
2022/07/28 11:46:35;;;;;;;1.23;1.13;;;26.50;65.30;;;;;;5093973;28;20454;-81
2022/07/28 11:49:29;;;;;;;1.00;0.80;;;26.50;65.30;;;;;;5094089;28;20476;-81
2022/07/28 11:52:16;;;;;;;1.93;1.10;;;26.50;65.30;;;;;;5046598;28;20491;-90
2022/07/28 11:54:48;;;;;;;1.10;0.93;;;26.50;65.40;;;;;;5095141;28;20791;-81
2022/07/28 11:57:18;;;;;;;1.37;1.00;;;26.50;65.50;;;;;;5094323;28;20428;-80
2022/07/28 11:59:48;;;;;;;1.40;0.90;;;26.50;65.50;;;;;;5094623;28;20480;-81
2022/07/28 12:02:17;;;;;;;1.30;1.03;;;26.50;65.50;;;;;;5094656;28;20515;-80
2022/07/28 12:04:44;;;;;;;1.20;1.00;;;26.50;65.50;;;;;;5094439;28;20479;-81
2022/07/28 12:07:12;;;;;;;1.10;0.90;;;26.50;65.40;;;;;;5094212;28;20436;-80
2022/07/28 12:09:38;;;;;;;1.17;0.97;;;26.50;65.50;;;;;;5094217;28;20440;-81
2022/07/28 12:12:07;;;;;;;1.10;0.90;;;26.50;65.40;;;;;;5075869;28;20575;-84
2022/07/28 12:14:39;;;;;;;2.60;1.07;;;26.50;65.40;;;;;;5073487;28;20520;-84
2022/07/28 12:17:08;;;;;;;1.20;0.90;;;26.60;64.70;;;;;;5072450;28;20451;-85
2022/07/28 12:19:35;;;;;;;1.13;1.00;;;26.50;64.40;;;;;;5073328;28;20468;-84
2022/07/28 12:22:02;;;;;;;1.10;0.80;;;26.50;64.50;;;;;;5073547;28;20793;-81
2022/07/28 12:24:30;;;;;;;1.93;0.70;;;26.50;64.40;;;;;;5073408;28;20437;-85
2022/07/28 12:26:59;;;;;;;1.93;1.00;;;26.50;65.10;;;;;;5072818;28;20780;-89
2022/07/28 12:29:30;;;;;;;1.83;1.07;;;26.50;64.80;;;;;;5073890;28;20467;-89
2022/07/28 12:31:58;;;;;;;1.47;1.07;;;26.50;65.10;;;;;;5073519;28;20889;-91
2022/07/28 12:34:27;;;;;;;1.47;0.90;;;26.60;65.50;;;;;;5073261;28;20814;-85
2022/07/28 12:36:56;;;;;;;1.67;1.07;;;26.60;65.50;;;;;;5053946;28;20438;-81
2022/07/28 12:39:24;;;;;;;2.10;1.10;;;26.50;65.50;;;;;;5069418;28;20444;-82
2022/07/28 12:42:02;;;;;;;3.37;1.10;;;26.60;65.70;;;;;;5073039;28;20506;-82
2022/07/28 12:44:36;;;;;;;1.10;0.93;;;26.60;65.80;;;;;;5073094;28;20444;-83
2022/07/28 12:47:05;;;;;;;1.93;1.10;;;26.60;66.00;;;;;;5073043;28;20527;-82
2022/07/28 12:49:34;;;;;;;10.43;1.00;;;26.60;66.10;;;;;;5072917;28;20963;-82
2022/07/28 12:52:16;;;;;;;2.60;1.40;;;26.60;66.40;;;;;;5073026;28;21251;-82
2022/07/28 12:54:43;;;;;;;2.23;2.00;;;26.70;66.70;;;;;;5072308;28;20444;-82
2022/07/28 12:57:10;;;;;;;88.53;44.93;;;26.60;67.20;;;;;;5072626;28;20437;-82
2022/07/28 12:59:39;;;;;;;57.23;29.60;;;26.60;67.40;;;;;;5072836;28;20527;-82